createdAt,value
2023-06-11T00:01:41.587Z,8.27
2023-06-11T00:04:13.949Z,9.05
2023-06-11T00:09:11.019Z,7.22
2023-06-11T00:11:43.270Z,7.97
2023-06-11T00:14:11.658Z,8.40
2023-06-11T00:16:44.890Z,8.13
2023-06-11T00:19:14.948Z,7.78
2023-06-11T00:21:45.064Z,8.27
2023-06-11T00:24:15.111Z,8.35
2023-06-11T00:26:43.556Z,8.32
2023-06-11T00:29:12.312Z,8.20
2023-06-11T00:31:41.641Z,8.63
2023-06-11T00:34:11.195Z,8.27
2023-06-11T00:36:41.549Z,8.02
2023-06-11T00:39:11.697Z,9.15
2023-06-11T00:41:46.395Z,8.70
2023-06-11T00:44:18.948Z,8.82
2023-06-11T00:46:48.706Z,8.55
2023-06-11T00:49:17.365Z,8.77
2023-06-11T00:51:48.659Z,8.70
2023-06-11T00:54:17.637Z,8.93
2023-06-11T00:56:46.209Z,9.02
2023-06-11T00:59:16.550Z,9.60
2023-06-11T01:01:50.454Z,9.73
2023-06-11T01:04:21.755Z,8.48
2023-06-11T01:06:56.222Z,8.93
2023-06-11T01:09:25.414Z,8.57
2023-06-11T01:11:54.887Z,8.93
2023-06-11T01:14:24.114Z,9.38
2023-06-11T01:16:58.974Z,8.75
2023-06-11T01:19:40.034Z,9.32
2023-06-11T01:22:16.898Z,10.00
2023-06-11T01:25:02.946Z,8.88
2023-06-11T01:27:43.791Z,9.30
2023-06-11T01:30:18.667Z,9.50
2023-06-11T01:32:54.360Z,9.10
2023-06-11T01:35:26.584Z,9.85
2023-06-11T01:37:59.136Z,8.70
2023-06-11T01:40:36.517Z,9.45
2023-06-11T01:43:05.475Z,9.35
2023-06-11T01:45:36.760Z,9.13
2023-06-11T01:48:05.672Z,10.10
2023-06-11T01:50:35.890Z,10.02
2023-06-11T01:53:04.748Z,10.05
2023-06-11T01:55:33.058Z,10.23
2023-06-11T01:58:02.529Z,9.48
2023-06-11T02:00:31.222Z,9.38
2023-06-11T02:03:03.298Z,9.70
2023-06-11T02:05:32.137Z,10.27
2023-06-11T02:08:00.368Z,9.88
2023-06-11T02:10:28.830Z,9.00
2023-06-11T02:12:57.059Z,9.82
2023-06-11T02:15:25.739Z,9.65
2023-06-11T02:17:54.920Z,9.50
2023-06-11T02:20:25.326Z,10.38
2023-06-11T02:22:53.680Z,9.82
2023-06-11T02:25:22.460Z,10.35
2023-06-11T02:27:51.957Z,10.98
2023-06-11T02:30:20.768Z,9.63
2023-06-11T02:32:49.396Z,10.70
2023-06-11T02:35:17.781Z,10.15
2023-06-11T02:37:47.858Z,9.30
2023-06-11T02:40:16.436Z,8.77
2023-06-11T02:42:45.765Z,9.13
2023-06-11T02:45:14.609Z,8.60
2023-06-11T02:47:43.314Z,9.25
2023-06-11T02:50:12.354Z,9.88
2023-06-11T02:52:41.054Z,9.52
2023-06-11T02:55:11.753Z,9.48
2023-06-11T02:57:40.481Z,9.95
2023-06-11T03:00:12.088Z,9.30
2023-06-11T03:02:41.219Z,9.40
2023-06-11T03:05:11.329Z,8.98
2023-06-11T03:07:40.399Z,9.68
2023-06-11T03:10:12.869Z,9.50
2023-06-11T03:12:41.176Z,9.30
2023-06-11T03:15:10.652Z,9.85
2023-06-11T03:17:39.358Z,10.73
2023-06-11T03:20:09.502Z,10.15
2023-06-11T03:22:39.024Z,10.48
2023-06-11T03:25:09.270Z,10.30
2023-06-11T03:27:40.509Z,10.32
2023-06-11T03:30:11.942Z,11.15
2023-06-11T03:32:41.866Z,10.52
2023-06-11T03:35:12.491Z,11.43
2023-06-11T03:37:41.800Z,10.30
2023-06-11T03:40:17.872Z,10.57
2023-06-11T03:42:49.522Z,11.18
2023-06-11T03:45:18.303Z,11.32
2023-06-11T03:47:46.744Z,11.23
2023-06-11T03:50:15.659Z,11.00
2023-06-11T03:52:44.885Z,10.95
2023-06-11T03:55:13.614Z,11.02
2023-06-11T03:57:43.407Z,11.75
2023-06-11T04:00:16.278Z,10.75
2023-06-11T04:02:45.952Z,11.52
2023-06-11T04:07:53.548Z,10.32
2023-06-11T04:10:23.827Z,11.10
2023-06-11T04:12:52.170Z,12.30
2023-06-11T04:15:22.486Z,10.60
2023-06-11T04:17:51.078Z,11.55
2023-06-11T04:20:20.526Z,10.57
2023-06-11T04:22:49.190Z,11.18
2023-06-11T04:25:18.306Z,10.45
2023-06-11T04:27:49.218Z,11.30
2023-06-11T04:30:19.440Z,10.05
2023-06-11T04:32:56.533Z,10.65
2023-06-11T04:35:28.372Z,10.05
2023-06-11T04:37:57.148Z,10.05
2023-06-11T04:40:28.345Z,10.73
2023-06-11T04:42:58.834Z,10.60
2023-06-11T04:45:29.669Z,10.00
2023-06-11T04:48:04.504Z,9.50
2023-06-11T04:50:37.581Z,10.57
2023-06-11T04:53:07.639Z,9.88
2023-06-11T04:55:39.715Z,9.43
2023-06-11T04:58:09.536Z,10.20
2023-06-11T05:00:38.687Z,9.73
2023-06-11T05:03:09.227Z,9.95
2023-06-11T05:08:08.567Z,9.90
2023-06-11T05:10:38.657Z,9.10
2023-06-11T05:13:07.261Z,10.05
2023-06-11T05:15:35.533Z,9.60
2023-06-11T05:18:04.594Z,8.90
2023-06-11T05:20:36.240Z,9.20
2023-06-11T05:23:04.468Z,8.55
2023-06-11T05:25:36.529Z,9.63
2023-06-11T05:28:09.601Z,9.90
2023-06-11T05:30:40.183Z,9.07
2023-06-11T05:33:10.004Z,9.52
2023-06-11T05:35:40.416Z,8.93
2023-06-11T05:38:10.669Z,9.80
2023-06-11T05:40:40.575Z,8.43
2023-06-11T05:43:09.067Z,8.45
2023-06-11T05:45:38.310Z,8.35
2023-06-11T05:48:08.452Z,7.82
2023-06-11T05:50:41.622Z,7.82
2023-06-11T05:53:10.958Z,7.13
2023-06-11T05:55:42.765Z,7.53
2023-06-11T05:58:13.518Z,8.07
2023-06-11T06:00:43.898Z,7.82
2023-06-11T06:03:12.275Z,7.60
2023-06-11T06:05:44.348Z,7.40
2023-06-11T06:10:41.670Z,6.70
2023-06-11T06:13:09.944Z,6.70
2023-06-11T06:15:38.366Z,7.07
2023-06-11T06:18:07.842Z,7.93
2023-06-11T06:20:44.128Z,7.57
2023-06-11T06:23:13.567Z,7.78
2023-06-11T06:25:46.463Z,7.50
2023-06-11T06:28:15.444Z,7.53
2023-06-11T06:30:44.272Z,7.13
2023-06-11T06:33:14.584Z,7.53
2023-06-11T06:35:44.462Z,7.07
2023-06-11T06:38:13.662Z,7.25
2023-06-11T06:40:44.280Z,7.03
2023-06-11T06:43:12.732Z,8.18
2023-06-11T06:45:43.957Z,7.28
2023-06-11T06:48:24.584Z,7.00
2023-06-11T06:50:54.698Z,7.38
2023-06-11T06:53:23.264Z,7.15
2023-06-11T06:55:53.467Z,7.13
2023-06-11T06:58:22.212Z,7.38
2023-06-11T07:00:52.270Z,6.85
2023-06-11T07:03:22.674Z,7.20
2023-06-11T07:05:51.164Z,7.90
2023-06-11T07:08:21.288Z,7.10
2023-06-11T07:10:52.429Z,6.70
2023-06-11T07:13:29.292Z,7.30
2023-06-11T07:15:58.466Z,7.15
2023-06-11T07:18:29.033Z,7.63
2023-06-11T07:20:58.141Z,7.53
2023-06-11T07:23:28.715Z,6.97
2023-06-11T07:25:58.248Z,7.32
2023-06-11T07:28:30.520Z,6.75
2023-06-11T07:31:00.729Z,7.03
2023-06-11T07:33:28.994Z,7.13
2023-06-11T07:36:00.562Z,7.55
2023-06-11T07:38:32.110Z,7.28
2023-06-11T07:41:02.732Z,6.90
2023-06-11T07:43:32.232Z,6.33
2023-06-11T07:46:02.624Z,6.32
2023-06-11T07:48:32.121Z,6.35
2023-06-11T07:51:01.817Z,6.40
2023-06-11T07:53:34.663Z,7.20
2023-06-11T07:56:03.197Z,6.60
2023-06-11T07:58:31.540Z,6.50
2023-06-11T08:01:00.195Z,6.85
2023-06-11T08:03:28.926Z,6.32
2023-06-11T08:05:57.562Z,6.28
2023-06-11T08:08:26.255Z,6.50
2023-06-11T08:10:55.970Z,6.55
2023-06-11T08:13:24.625Z,6.07
2023-06-11T08:15:54.635Z,6.85
2023-06-11T08:18:22.792Z,6.55
2023-06-11T08:20:51.703Z,7.10
2023-06-11T08:23:20.482Z,6.35
2023-06-11T08:25:48.932Z,6.70
2023-06-11T08:28:18.669Z,7.20
2023-06-11T08:30:46.822Z,6.65
2023-06-11T08:33:14.954Z,6.60
2023-06-11T08:35:44.264Z,6.70
2023-06-11T08:38:12.893Z,6.68
2023-06-11T08:40:42.647Z,6.32
2023-06-11T08:43:11.125Z,6.10
2023-06-11T08:45:41.035Z,5.90
2023-06-11T08:48:11.641Z,5.55
2023-06-11T08:50:40.518Z,6.15
2023-06-11T08:53:09.685Z,5.28
2023-06-11T08:55:38.044Z,5.60
2023-06-11T08:58:07.379Z,5.00
2023-06-11T09:00:38.229Z,5.90
2023-06-11T09:03:09.261Z,5.80
2023-06-11T09:05:37.774Z,5.33
2023-06-11T09:08:09.307Z,5.03
2023-06-11T09:10:50.080Z,3.90
2023-06-11T09:13:18.722Z,4.50
2023-06-11T09:15:51.240Z,4.03
2023-06-11T09:18:32.314Z,3.80
2023-06-11T09:21:02.241Z,4.00
2023-06-11T09:23:32.464Z,4.38
2023-06-11T09:26:01.400Z,4.13
2023-06-11T09:28:31.610Z,3.95
2023-06-11T09:31:00.811Z,3.88
2023-06-11T09:33:32.145Z,3.80
2023-06-11T09:36:04.343Z,4.07
2023-06-11T09:38:35.763Z,4.95
2023-06-11T09:41:07.117Z,3.75
2023-06-11T09:43:36.483Z,3.97
2023-06-11T09:46:04.757Z,3.17
2023-06-11T09:48:34.776Z,3.63
2023-06-11T09:51:04.754Z,3.15
2023-06-11T09:53:35.709Z,3.65
2023-06-11T09:56:11.460Z,2.80
2023-06-11T09:58:42.197Z,3.58
2023-06-11T10:01:12.189Z,3.17
2023-06-11T10:03:46.454Z,3.70
2023-06-11T10:06:20.330Z,4.05
2023-06-11T10:08:50.547Z,3.42
2023-06-11T10:11:23.777Z,3.65
2023-06-11T10:13:59.900Z,3.58
2023-06-11T10:16:28.703Z,3.20
2023-06-11T10:19:07.875Z,3.35
2023-06-11T10:21:38.160Z,3.42
2023-06-11T10:24:07.168Z,3.60
2023-06-11T10:26:37.262Z,3.50
2023-06-11T10:29:12.449Z,3.47
2023-06-11T10:31:43.162Z,3.55
2023-06-11T10:34:16.296Z,3.95
2023-06-11T10:36:45.116Z,4.20
2023-06-11T10:39:24.129Z,3.83
2023-06-11T10:42:02.105Z,4.35
2023-06-11T10:44:31.230Z,3.70
2023-06-11T10:47:02.661Z,4.15
2023-06-11T10:49:32.847Z,4.70
2023-06-11T10:52:03.181Z,4.70
2023-06-11T10:54:35.545Z,3.60
2023-06-11T10:57:05.739Z,3.55
2023-06-11T10:59:34.164Z,3.10
2023-06-11T11:02:02.528Z,3.15
2023-06-11T11:04:32.475Z,3.38
2023-06-11T11:07:09.441Z,3.28
2023-06-11T11:09:38.253Z,3.90
2023-06-11T11:12:07.760Z,3.58
2023-06-11T11:14:36.479Z,3.28
2023-06-11T11:17:05.521Z,3.70
2023-06-11T11:19:37.117Z,4.18
2023-06-11T11:22:06.215Z,3.60
2023-06-11T11:24:39.816Z,4.80
2023-06-11T11:27:09.459Z,4.30
2023-06-11T11:29:38.366Z,3.60
2023-06-11T11:32:08.683Z,3.60
2023-06-11T11:34:42.192Z,3.40
2023-06-11T11:37:10.712Z,5.38
2023-06-11T11:39:39.160Z,3.67
2023-06-11T11:42:10.875Z,5.80
2023-06-11T11:44:44.619Z,4.47
2023-06-11T11:47:13.239Z,4.30
2023-06-11T11:49:45.769Z,4.50
2023-06-11T11:52:14.530Z,3.80
2023-06-11T11:54:45.436Z,4.63
2023-06-11T11:57:20.765Z,4.87
2023-06-11T11:59:55.198Z,4.25
2023-06-11T12:02:29.375Z,4.72
2023-06-11T12:05:01.563Z,3.92
2023-06-11T12:07:29.955Z,3.75
2023-06-11T12:10:01.014Z,4.05
2023-06-11T12:12:34.079Z,4.60
2023-06-11T12:15:02.372Z,4.50
2023-06-11T12:17:31.772Z,5.28
2023-06-11T12:20:01.629Z,3.80
2023-06-11T12:22:31.444Z,3.80
2023-06-11T12:24:59.928Z,3.67
2023-06-11T12:27:28.292Z,3.85
2023-06-11T12:29:56.814Z,3.67
2023-06-11T12:32:26.272Z,4.35
2023-06-11T12:34:54.689Z,3.60
2023-06-11T12:37:25.980Z,3.35
2023-06-11T12:39:54.617Z,3.67
2023-06-11T12:42:23.938Z,4.00
2023-06-11T12:44:52.528Z,3.58
2023-06-11T12:47:21.476Z,4.30
2023-06-11T12:49:50.346Z,3.53
2023-06-11T12:52:18.725Z,3.80
2023-06-11T12:54:48.537Z,3.80
2023-06-11T12:57:17.737Z,3.45
2023-06-11T12:59:46.086Z,4.07
2023-06-11T13:02:19.278Z,3.78
2023-06-11T13:04:48.277Z,4.07
2023-06-11T13:07:16.642Z,4.70
2023-06-11T13:09:46.233Z,4.45
2023-06-11T13:12:15.969Z,3.88
2023-06-11T13:14:44.679Z,4.15
2023-06-11T13:17:13.123Z,4.30
2023-06-11T13:19:41.810Z,4.07
2023-06-11T13:22:13.195Z,3.92
2023-06-11T13:24:42.094Z,3.90
2023-06-11T13:27:10.589Z,4.30
2023-06-11T13:29:40.687Z,4.28
2023-06-11T13:32:10.368Z,4.20
2023-06-11T13:34:39.700Z,4.25
2023-06-11T13:37:09.177Z,3.92
2023-06-11T13:39:38.695Z,4.30
2023-06-11T13:42:08.338Z,3.88
2023-06-11T13:44:37.529Z,3.85
2023-06-11T13:47:09.629Z,4.28
2023-06-11T13:49:39.340Z,4.03
2023-06-11T13:52:09.129Z,4.45
2023-06-11T13:54:39.410Z,4.72
2023-06-11T13:57:10.412Z,4.13
2023-06-11T13:59:40.409Z,4.45
2023-06-11T14:02:11.280Z,4.50
2023-06-11T14:04:40.421Z,4.27
2023-06-11T14:07:10.259Z,4.53
2023-06-11T14:09:39.427Z,4.45
2023-06-11T14:12:10.824Z,3.92
2023-06-11T14:14:39.958Z,3.90
2023-06-11T14:17:11.626Z,4.20
2023-06-11T14:22:10.059Z,4.57
2023-06-11T14:24:39.395Z,4.30
2023-06-11T14:27:08.865Z,4.47
2023-06-11T14:29:40.895Z,4.72
2023-06-11T14:32:14.110Z,4.97
2023-06-11T14:34:43.520Z,4.88
2023-06-11T14:37:12.682Z,4.78
2023-06-11T14:39:41.565Z,4.40
2023-06-11T14:42:15.417Z,4.75
2023-06-11T14:44:44.283Z,4.97
2023-06-11T14:47:14.541Z,5.43
2023-06-11T14:49:42.924Z,4.82
2023-06-11T14:52:11.670Z,4.47
2023-06-11T14:54:41.175Z,3.83
2023-06-11T14:57:14.239Z,4.05
2023-06-11T14:59:43.370Z,4.90
2023-06-11T15:02:17.825Z,4.63
2023-06-11T15:04:46.484Z,4.93
2023-06-11T15:09:47.425Z,4.32
2023-06-11T15:12:16.495Z,4.65
2023-06-11T15:14:45.788Z,4.30
2023-06-11T15:17:15.833Z,4.65
2023-06-11T15:19:45.545Z,4.88
2023-06-11T15:22:14.284Z,4.32
2023-06-11T15:24:42.508Z,4.90
2023-06-11T15:27:18.102Z,4.72
2023-06-11T15:29:46.915Z,5.03
2023-06-11T15:32:18.724Z,4.97
2023-06-11T15:37:15.205Z,4.95
2023-06-11T15:39:44.842Z,4.53
2023-06-11T15:42:13.837Z,5.18
2023-06-11T15:44:42.429Z,5.35
2023-06-11T15:47:11.703Z,4.93
2023-06-11T15:49:41.511Z,5.32
2023-06-11T15:52:11.013Z,4.88
2023-06-11T15:54:39.664Z,5.45
2023-06-11T15:57:08.810Z,4.68
2023-06-11T15:59:37.087Z,4.57
2023-06-11T16:02:06.074Z,5.15
2023-06-11T16:04:34.605Z,5.30
2023-06-11T16:07:06.496Z,6.22
2023-06-11T16:12:03.383Z,6.60
2023-06-11T16:14:31.514Z,5.25
2023-06-11T16:16:59.763Z,4.82
2023-06-11T16:19:28.372Z,6.47
2023-06-11T16:21:57.420Z,5.30
2023-06-11T16:24:27.419Z,5.07
2023-06-11T16:26:57.315Z,5.05
2023-06-11T16:29:25.601Z,8.13
2023-06-11T16:31:54.072Z,7.38
2023-06-11T16:34:22.518Z,5.10
2023-06-11T16:36:50.775Z,5.05
2023-06-11T16:39:27.262Z,5.35
2023-06-11T16:41:59.266Z,6.85
2023-06-11T16:44:27.688Z,5.38
2023-06-11T16:46:57.573Z,5.10
2023-06-11T16:49:25.613Z,5.03
2023-06-11T16:51:53.909Z,5.45
2023-06-11T16:54:22.770Z,5.40
2023-06-11T16:56:51.269Z,5.68
2023-06-11T16:59:21.498Z,4.80
2023-06-11T17:01:50.002Z,4.88
2023-06-11T17:04:18.416Z,4.68
2023-06-11T17:06:46.917Z,4.65
2023-06-11T17:09:16.266Z,5.18
2023-06-11T17:11:45.197Z,4.85
2023-06-11T17:14:13.569Z,5.78
2023-06-11T17:16:43.874Z,4.63
2023-06-11T17:19:12.383Z,5.00
2023-06-11T17:21:41.475Z,5.10
2023-06-11T17:24:13.338Z,4.45
2023-06-11T17:29:11.242Z,5.40
2023-06-11T17:31:40.198Z,4.93
2023-06-11T17:34:10.260Z,4.93
2023-06-11T17:36:38.653Z,4.70
2023-06-11T17:39:06.975Z,4.80
2023-06-11T17:41:35.074Z,5.57
2023-06-11T17:44:03.550Z,5.35
2023-06-11T17:46:33.015Z,5.75
2023-06-11T17:49:01.551Z,4.80
2023-06-11T17:51:31.004Z,5.20
2023-06-11T17:53:59.553Z,5.15
2023-06-11T17:56:28.122Z,4.80
2023-06-11T17:59:01.075Z,5.72
2023-06-11T18:01:29.568Z,5.38
2023-06-11T18:03:58.172Z,5.45
2023-06-11T18:06:26.723Z,5.40
2023-06-11T18:08:56.509Z,4.88
2023-06-11T18:11:24.976Z,5.30
2023-06-11T18:13:54.632Z,5.10
2023-06-11T18:16:23.139Z,5.70
2023-06-11T18:18:51.557Z,5.13
2023-06-11T18:21:20.540Z,5.18
2023-06-11T18:23:48.877Z,5.20
2023-06-11T18:26:18.587Z,4.90
2023-06-11T18:28:46.739Z,5.03
2023-06-11T18:31:16.220Z,5.32
2023-06-11T18:33:44.586Z,5.65
2023-06-11T18:36:13.603Z,4.80
2023-06-11T18:38:41.829Z,5.22
2023-06-11T18:41:10.419Z,5.10
2023-06-11T18:43:40.068Z,5.20
2023-06-11T18:46:08.429Z,5.18
2023-06-11T18:48:36.932Z,5.28
2023-06-11T18:51:06.302Z,5.88
2023-06-11T18:53:34.785Z,6.07
2023-06-11T18:56:03.500Z,6.72
2023-06-11T18:58:32.124Z,5.45
2023-06-11T19:01:02.000Z,4.70
2023-06-11T19:03:31.169Z,5.45
2023-06-11T19:05:59.428Z,5.30
2023-06-11T19:08:27.671Z,5.50
2023-06-11T19:10:55.863Z,4.82
2023-06-11T19:13:24.004Z,5.28
2023-06-11T19:15:54.872Z,5.57
2023-06-11T19:18:24.403Z,5.10
2023-06-11T19:20:52.844Z,5.00
2023-06-11T19:23:21.429Z,6.07
2023-06-11T19:25:51.214Z,5.85
2023-06-11T19:28:19.695Z,5.97
2023-06-11T19:30:47.946Z,6.40
2023-06-11T19:33:16.584Z,5.82
2023-06-11T19:35:46.420Z,5.75
2023-06-11T19:38:16.934Z,5.40
2023-06-11T19:40:45.099Z,5.40
2023-06-11T19:43:13.421Z,5.63
2023-06-11T19:45:41.894Z,5.72
2023-06-11T19:48:10.363Z,5.68
2023-06-11T19:50:39.134Z,6.20
2023-06-11T19:53:09.164Z,5.85
2023-06-11T19:55:37.809Z,5.75
2023-06-11T19:58:07.975Z,6.20
2023-06-11T20:00:36.139Z,6.47
2023-06-11T20:03:04.484Z,6.05
2023-06-11T20:05:33.807Z,6.25
2023-06-11T20:08:02.773Z,5.97
2023-06-11T20:10:37.020Z,6.10
2023-06-11T20:13:05.422Z,6.32
2023-06-11T20:15:34.215Z,6.00
2023-06-11T20:18:02.605Z,5.82
2023-06-11T20:20:31.093Z,5.88
2023-06-11T20:22:59.451Z,6.18
2023-06-11T20:25:28.842Z,5.68
2023-06-11T20:27:58.714Z,6.72
2023-06-11T20:30:27.146Z,6.25
2023-06-11T20:32:55.495Z,6.40
2023-06-11T20:35:23.671Z,6.50
2023-06-11T20:37:51.791Z,6.70
2023-06-11T20:40:20.377Z,6.53
2023-06-11T20:42:48.644Z,7.47
2023-06-11T20:45:18.500Z,6.93
2023-06-11T20:47:46.924Z,7.10
2023-06-11T20:50:15.680Z,6.55
2023-06-11T20:52:43.728Z,6.47
2023-06-11T20:55:11.848Z,6.90
2023-06-11T20:57:40.158Z,6.68
2023-06-11T21:00:10.396Z,8.05
2023-06-11T21:02:40.464Z,7.53
2023-06-11T21:05:09.440Z,6.50
2023-06-11T21:07:38.234Z,7.28
2023-06-11T21:10:07.883Z,7.22
2023-06-11T21:12:38.359Z,6.80
2023-06-11T21:15:08.088Z,7.25
2023-06-11T21:17:36.414Z,7.78
2023-06-11T21:20:07.250Z,7.22
2023-06-11T21:22:35.912Z,6.72
2023-06-11T21:25:06.784Z,6.78
2023-06-11T21:27:35.121Z,7.80
2023-06-11T21:30:03.407Z,7.45
2023-06-11T21:32:31.776Z,8.05
2023-06-11T21:35:00.130Z,7.68
2023-06-11T21:37:29.965Z,7.50
2023-06-11T21:39:58.285Z,8.27
2023-06-11T21:42:26.927Z,7.70
2023-06-11T21:44:55.395Z,6.65
2023-06-11T21:47:24.006Z,6.82
2023-06-11T21:49:52.648Z,7.80
2023-06-11T21:52:22.348Z,7.22
2023-06-11T21:54:52.117Z,7.57
2023-06-11T21:57:20.336Z,7.43
2023-06-11T21:59:48.550Z,7.05
2023-06-11T22:02:17.173Z,7.45
2023-06-11T22:04:45.573Z,7.40
2023-06-11T22:07:14.802Z,6.95
2023-06-11T22:09:43.675Z,7.30
2023-06-11T22:12:14.076Z,7.85
2023-06-11T22:14:42.480Z,8.00
2023-06-11T22:17:10.820Z,8.20
2023-06-11T22:19:39.957Z,7.43
2023-06-11T22:22:13.857Z,8.40
2023-06-11T22:24:42.169Z,7.15
2023-06-11T22:27:13.108Z,7.00
2023-06-11T22:29:42.801Z,7.50
2023-06-11T22:32:12.915Z,6.55
2023-06-11T22:34:41.178Z,6.82
2023-06-11T22:37:09.404Z,6.70
2023-06-11T22:39:37.626Z,6.93
2023-06-11T22:42:06.526Z,5.65
2023-06-11T22:44:34.942Z,5.90
2023-06-11T22:47:05.079Z,7.40
2023-06-11T22:49:33.986Z,6.60
2023-06-11T22:52:02.466Z,6.32
2023-06-11T22:54:31.230Z,6.30
2023-06-11T22:56:59.579Z,7.15
2023-06-11T22:59:28.194Z,7.25
2023-06-11T23:01:56.670Z,7.35
2023-06-11T23:04:26.684Z,8.20
2023-06-11T23:06:55.799Z,6.72
2023-06-11T23:09:24.594Z,7.55
2023-06-11T23:11:52.954Z,7.28
2023-06-11T23:14:21.424Z,7.50
2023-06-11T23:16:49.905Z,6.90
2023-06-11T23:19:23.780Z,7.55
2023-06-11T23:21:58.123Z,7.07
2023-06-11T23:24:27.571Z,7.05
2023-06-11T23:26:57.384Z,7.43
2023-06-11T23:29:26.387Z,6.78
2023-06-11T23:31:54.826Z,6.63
2023-06-11T23:34:24.178Z,7.53
2023-06-11T23:36:53.992Z,8.27
2023-06-11T23:39:24.684Z,7.25
2023-06-11T23:41:52.895Z,7.07
2023-06-11T23:44:21.174Z,6.65
2023-06-11T23:46:49.633Z,6.53
2023-06-11T23:49:18.307Z,6.63
2023-06-11T23:51:46.981Z,6.40
2023-06-11T23:54:16.701Z,6.75
2023-06-11T23:56:45.061Z,7.13
2023-06-11T23:59:13.148Z,6.82
